createdAt,value
2023-05-20T00:01:27.311Z,12.37
2023-05-20T00:03:54.116Z,12.36
2023-05-20T00:06:20.867Z,12.36
2023-05-20T00:08:47.312Z,12.38
2023-05-20T00:11:13.908Z,12.33
2023-05-20T00:13:40.488Z,12.33
2023-05-20T00:16:07.016Z,12.32
2023-05-20T00:18:33.678Z,12.35
2023-05-20T00:21:00.121Z,12.39
2023-05-20T00:23:26.528Z,12.36
2023-05-20T00:25:53.132Z,12.38
2023-05-20T00:28:19.823Z,12.30
2023-05-20T00:30:46.506Z,12.30
2023-05-20T00:33:13.509Z,12.28
2023-05-20T00:35:40.009Z,12.25
2023-05-20T00:38:06.418Z,12.23
2023-05-20T00:40:32.873Z,12.22
2023-05-20T00:42:59.288Z,12.30
2023-05-20T00:45:25.758Z,12.21
2023-05-20T00:47:52.254Z,12.17
2023-05-20T00:50:18.862Z,12.16
2023-05-20T00:52:48.072Z,12.05
2023-05-20T00:55:14.661Z,12.06
2023-05-20T00:57:41.033Z,12.10
2023-05-20T01:00:08.198Z,11.89
2023-05-20T01:02:35.042Z,11.90
2023-05-20T01:05:01.737Z,11.88
2023-05-20T01:07:28.143Z,11.88
2023-05-20T01:09:56.351Z,11.82
2023-05-20T01:12:26.161Z,11.85
2023-05-20T01:15:04.010Z,11.85
2023-05-20T01:17:32.898Z,11.84
2023-05-20T01:19:59.849Z,11.77
2023-05-20T01:22:27.132Z,11.79
2023-05-20T01:24:53.582Z,11.70
2023-05-20T01:27:22.534Z,11.68
2023-05-20T01:29:50.754Z,11.75
2023-05-20T01:32:23.934Z,11.74
2023-05-20T01:34:51.450Z,11.73
2023-05-20T01:37:19.431Z,11.70
2023-05-20T01:39:47.605Z,11.72
2023-05-20T01:42:14.193Z,11.78
2023-05-20T01:44:40.813Z,11.78
2023-05-20T01:47:07.291Z,11.85
2023-05-20T01:49:33.996Z,11.80
2023-05-20T01:52:00.450Z,11.92
2023-05-20T01:54:26.848Z,11.97
2023-05-20T01:56:53.538Z,12.00
2023-05-20T01:59:19.993Z,12.13
2023-05-20T02:01:46.437Z,12.19
2023-05-20T02:04:13.093Z,12.19
2023-05-20T02:06:39.476Z,12.16
2023-05-20T02:09:06.070Z,12.23
2023-05-20T02:11:32.508Z,12.27
2023-05-20T02:13:58.897Z,12.16
2023-05-20T02:16:25.533Z,12.19
2023-05-20T02:18:53.176Z,12.17
2023-05-20T02:21:19.670Z,12.15
2023-05-20T02:23:46.511Z,12.08
2023-05-20T02:26:13.208Z,12.07
2023-05-20T02:28:43.505Z,11.98
2023-05-20T02:31:09.909Z,11.97
2023-05-20T02:33:36.621Z,12.05
2023-05-20T02:36:03.042Z,11.98
2023-05-20T02:38:31.750Z,11.92
2023-05-20T02:40:59.869Z,11.98
2023-05-20T02:43:26.413Z,11.97
2023-05-20T02:45:52.950Z,11.99
2023-05-20T02:48:19.601Z,11.99
2023-05-20T02:50:46.701Z,11.93
2023-05-20T02:53:13.152Z,11.94
2023-05-20T02:55:40.517Z,11.93
2023-05-20T02:58:07.088Z,11.91
2023-05-20T03:00:41.009Z,11.89
2023-05-20T03:03:08.281Z,11.84
2023-05-20T03:05:37.830Z,11.81
2023-05-20T03:08:09.643Z,11.83
2023-05-20T03:10:37.587Z,11.76
2023-05-20T03:13:08.394Z,11.75
2023-05-20T03:15:38.691Z,11.78
2023-05-20T03:18:05.936Z,11.76
2023-05-20T03:20:38.385Z,11.66
2023-05-20T03:23:05.141Z,11.65
2023-05-20T03:25:31.858Z,11.66
2023-05-20T03:27:59.468Z,11.60
2023-05-20T03:30:29.038Z,11.62
2023-05-20T03:32:57.693Z,11.58
2023-05-20T03:35:24.323Z,11.53
2023-05-20T03:37:53.097Z,11.44
2023-05-20T03:40:22.975Z,11.29
2023-05-20T03:42:50.915Z,11.34
2023-05-20T03:45:17.510Z,11.31
2023-05-20T03:47:44.027Z,11.23
2023-05-20T03:50:10.733Z,11.19
2023-05-20T03:52:37.170Z,11.18
2023-05-20T03:55:04.284Z,11.19
2023-05-20T03:57:32.148Z,11.12
2023-05-20T03:59:58.834Z,11.09
2023-05-20T04:02:25.342Z,11.09
2023-05-20T04:04:52.859Z,11.08
2023-05-20T04:07:19.609Z,11.07
2023-05-20T04:09:46.441Z,10.99
2023-05-20T04:12:13.925Z,11.00
2023-05-20T04:14:42.372Z,11.00
2023-05-20T04:17:09.650Z,10.88
2023-05-20T04:19:36.266Z,10.87
2023-05-20T04:22:02.786Z,10.89
2023-05-20T04:24:29.225Z,10.90
2023-05-20T04:26:55.661Z,10.91
2023-05-20T04:29:23.180Z,10.96
2023-05-20T04:31:49.596Z,11.03
2023-05-20T04:34:19.456Z,11.00
2023-05-20T04:36:45.925Z,11.03
2023-05-20T04:39:15.627Z,11.03
2023-05-20T04:41:42.033Z,11.13
2023-05-20T04:44:08.626Z,11.12
2023-05-20T04:46:35.112Z,11.18
2023-05-20T04:49:01.653Z,11.23
2023-05-20T04:51:29.445Z,11.34
2023-05-20T04:53:55.913Z,11.34
2023-05-20T04:56:22.576Z,11.30
2023-05-20T04:58:49.182Z,11.32
2023-05-20T05:01:15.727Z,11.34
2023-05-20T05:03:42.237Z,11.46
2023-05-20T05:06:08.843Z,11.50
2023-05-20T05:08:35.337Z,11.56
2023-05-20T05:11:01.748Z,11.52
2023-05-20T05:13:28.378Z,11.62
2023-05-20T05:15:58.820Z,11.69
2023-05-20T05:18:25.386Z,11.66
2023-05-20T05:20:59.428Z,11.65
2023-05-20T05:23:25.945Z,11.66
2023-05-20T05:25:53.043Z,11.63
2023-05-20T05:28:19.779Z,11.68
2023-05-20T05:30:46.168Z,11.66
2023-05-20T05:33:14.691Z,11.63
2023-05-20T05:35:41.941Z,11.58
2023-05-20T05:38:08.886Z,11.69
2023-05-20T05:40:35.591Z,11.67
2023-05-20T05:43:02.163Z,11.76
2023-05-20T05:45:28.556Z,11.83
2023-05-20T05:47:54.984Z,11.92
2023-05-20T05:50:21.427Z,12.00
2023-05-20T05:52:47.844Z,12.15
2023-05-20T05:55:14.318Z,12.25
2023-05-20T05:57:41.320Z,12.38
2023-05-20T06:00:08.319Z,12.36
2023-05-20T06:02:36.267Z,12.38
2023-05-20T06:05:03.948Z,12.53
2023-05-20T06:07:30.412Z,12.54
2023-05-20T06:09:56.989Z,12.50
2023-05-20T06:12:23.589Z,12.55
2023-05-20T06:14:50.057Z,12.60
2023-05-20T06:17:16.449Z,12.66
2023-05-20T06:19:43.086Z,12.72
2023-05-20T06:22:09.578Z,12.79
2023-05-20T06:24:35.983Z,12.88
2023-05-20T06:27:03.247Z,12.96
2023-05-20T06:29:29.723Z,12.97
2023-05-20T06:31:56.157Z,13.06
2023-05-20T06:34:22.714Z,13.11
2023-05-20T06:36:49.164Z,13.14
2023-05-20T06:39:15.792Z,13.14
2023-05-20T06:41:42.251Z,13.18
2023-05-20T06:44:08.696Z,13.26
2023-05-20T06:46:35.324Z,13.37
2023-05-20T06:49:01.744Z,13.48
2023-05-20T06:51:28.490Z,13.52
2023-05-20T06:53:55.094Z,13.51
2023-05-20T06:56:21.612Z,13.62
2023-05-20T06:58:48.027Z,13.69
2023-05-20T07:01:16.587Z,13.72
2023-05-20T07:03:44.460Z,13.84
2023-05-20T07:06:10.902Z,13.71
2023-05-20T07:08:37.336Z,13.86
2023-05-20T07:11:03.734Z,13.97
2023-05-20T07:13:30.861Z,14.02
2023-05-20T07:15:57.300Z,14.16
2023-05-20T07:18:23.754Z,14.20
2023-05-20T07:20:50.309Z,14.32
2023-05-20T07:23:16.717Z,14.46
2023-05-20T07:25:43.211Z,14.49
2023-05-20T07:28:09.623Z,14.52
2023-05-20T07:30:36.053Z,14.60
2023-05-20T07:33:02.542Z,14.51
2023-05-20T07:35:29.057Z,14.58
2023-05-20T07:37:56.074Z,14.59
2023-05-20T07:40:22.490Z,14.46
2023-05-20T07:42:48.903Z,14.49
2023-05-20T07:45:15.674Z,14.52
2023-05-20T07:47:42.122Z,14.49
2023-05-20T07:50:08.892Z,14.43
2023-05-20T07:52:44.190Z,14.46
2023-05-20T07:55:21.519Z,14.49
2023-05-20T07:57:48.142Z,14.48
2023-05-20T08:00:14.708Z,14.47
2023-05-20T08:02:41.281Z,14.42
2023-05-20T08:05:08.842Z,14.39
2023-05-20T08:07:35.231Z,14.43
2023-05-20T08:10:01.822Z,14.33
2023-05-20T08:12:28.239Z,14.45
2023-05-20T08:14:54.673Z,14.62
2023-05-20T08:17:21.401Z,14.70
2023-05-20T08:19:47.885Z,14.80
2023-05-20T08:22:14.322Z,14.96
2023-05-20T08:24:41.175Z,15.13
2023-05-20T08:27:07.623Z,15.27
2023-05-20T08:29:34.091Z,15.36
2023-05-20T08:32:00.622Z,15.50
2023-05-20T08:34:27.044Z,15.50
2023-05-20T08:36:53.452Z,15.70
2023-05-20T08:39:20.024Z,15.67
2023-05-20T08:41:46.839Z,15.75
2023-05-20T08:44:13.230Z,15.83
2023-05-20T08:46:39.768Z,16.03
2023-05-20T08:49:06.358Z,16.19
2023-05-20T08:51:32.758Z,16.40
2023-05-20T08:54:02.966Z,16.51
2023-05-20T08:56:31.073Z,16.79
2023-05-20T08:58:57.630Z,16.75
2023-05-20T09:01:25.424Z,16.52
2023-05-20T09:03:51.867Z,16.25
2023-05-20T09:06:21.289Z,16.13
2023-05-20T09:08:53.652Z,16.33
2023-05-20T09:11:20.222Z,16.24
2023-05-20T09:13:46.649Z,16.27
2023-05-20T09:16:13.529Z,16.39
2023-05-20T09:18:40.741Z,16.55
2023-05-20T09:21:07.238Z,16.70
2023-05-20T09:23:33.726Z,16.90
2023-05-20T09:26:01.523Z,17.07
2023-05-20T09:28:28.160Z,17.18
2023-05-20T09:31:00.739Z,17.11
2023-05-20T09:33:29.840Z,17.01
2023-05-20T09:36:07.766Z,16.80
2023-05-20T09:38:38.076Z,16.77
2023-05-20T09:41:08.279Z,16.62
2023-05-20T09:43:36.287Z,16.54
2023-05-20T09:46:04.243Z,16.67
2023-05-20T09:48:34.067Z,16.76
2023-05-20T09:51:00.981Z,16.72
2023-05-20T09:53:30.361Z,16.97
2023-05-20T09:55:58.020Z,17.11
2023-05-20T09:58:25.221Z,17.13
2023-05-20T10:00:52.077Z,17.26
2023-05-20T10:03:18.722Z,17.29
2023-05-20T10:06:17.833Z,17.26
2023-05-20T10:09:06.423Z,17.02
2023-05-20T10:11:45.718Z,16.83
2023-05-20T10:14:33.848Z,16.74
2023-05-20T10:17:10.120Z,16.74
2023-05-20T10:19:36.666Z,16.70
2023-05-20T10:22:04.975Z,16.95
2023-05-20T10:24:35.145Z,17.18
2023-05-20T10:27:03.681Z,17.05
2023-05-20T10:29:30.323Z,16.99
2023-05-20T10:31:56.846Z,17.16
2023-05-20T10:34:23.596Z,17.26
2023-05-20T10:36:56.078Z,16.94
2023-05-20T10:39:29.822Z,16.88
2023-05-20T10:42:07.183Z,16.68
2023-05-20T10:44:43.810Z,16.59
2023-05-20T10:49:46.934Z,16.53
2023-05-20T10:52:13.885Z,16.53
2023-05-20T10:55:07.702Z,16.55
2023-05-20T10:57:34.163Z,16.68
2023-05-20T11:00:01.412Z,16.70
2023-05-20T11:02:28.746Z,16.55
2023-05-20T11:04:58.556Z,16.63
2023-05-20T11:07:28.975Z,16.59
2023-05-20T11:09:56.410Z,16.67
2023-05-20T11:12:23.764Z,16.84
2023-05-20T11:14:50.239Z,16.78
2023-05-20T11:17:17.705Z,16.77
2023-05-20T11:19:44.119Z,16.83
2023-05-20T11:22:10.861Z,16.98
2023-05-20T11:24:37.463Z,17.07
2023-05-20T11:27:04.519Z,16.92
2023-05-20T11:29:32.431Z,16.94
2023-05-20T11:31:59.802Z,17.00
2023-05-20T11:34:27.368Z,17.15
2023-05-20T11:36:58.561Z,17.32
2023-05-20T11:39:25.288Z,17.30
2023-05-20T11:41:51.827Z,17.07
2023-05-20T11:44:20.091Z,17.04
2023-05-20T11:46:47.395Z,17.54
2023-05-20T11:49:14.433Z,18.20
2023-05-20T11:51:40.953Z,18.12
2023-05-20T11:54:07.764Z,18.17
2023-05-20T11:56:37.108Z,18.37
2023-05-20T11:59:06.862Z,18.59
2023-05-20T12:01:37.631Z,18.55
2023-05-20T12:04:08.272Z,18.12
2023-05-20T12:06:35.225Z,18.00
2023-05-20T12:09:06.799Z,17.92
2023-05-20T12:11:37.276Z,17.72
2023-05-20T12:14:04.007Z,17.46
2023-05-20T12:16:31.939Z,17.45
2023-05-20T12:18:58.443Z,17.49
2023-05-20T12:21:24.986Z,17.39
2023-05-20T12:23:57.784Z,17.19
2023-05-20T12:26:25.793Z,17.08
2023-05-20T12:28:52.315Z,17.18
2023-05-20T12:31:19.015Z,17.19
2023-05-20T12:33:45.600Z,16.96
2023-05-20T12:36:12.040Z,16.73
2023-05-20T12:38:38.514Z,16.84
2023-05-20T12:41:04.987Z,16.80
2023-05-20T12:43:31.824Z,16.86
2023-05-20T12:45:58.520Z,16.89
2023-05-20T12:48:24.924Z,16.91
2023-05-20T12:50:51.410Z,17.07
2023-05-20T12:53:18.014Z,16.96
2023-05-20T12:55:44.457Z,17.06
2023-05-20T12:58:10.889Z,17.22
2023-05-20T13:00:37.474Z,17.24
2023-05-20T13:03:04.255Z,17.18
2023-05-20T13:05:30.915Z,17.21
2023-05-20T13:07:57.524Z,17.15
2023-05-20T13:10:23.953Z,17.20
2023-05-20T13:12:50.334Z,17.32
2023-05-20T13:15:17.106Z,17.32
2023-05-20T13:17:43.629Z,17.40
2023-05-20T13:20:11.028Z,17.38
2023-05-20T13:22:38.171Z,17.27
2023-05-20T13:25:05.448Z,17.37
2023-05-20T13:27:31.860Z,17.43
2023-05-20T13:29:58.338Z,17.20
2023-05-20T13:32:24.824Z,17.01
2023-05-20T13:34:51.407Z,16.93
2023-05-20T13:37:18.059Z,17.05
2023-05-20T13:39:44.474Z,17.06
2023-05-20T13:42:10.949Z,17.16
2023-05-20T13:44:37.491Z,17.30
2023-05-20T13:47:04.054Z,17.41
2023-05-20T13:49:30.504Z,17.52
2023-05-20T13:51:56.939Z,17.83
2023-05-20T13:54:23.346Z,18.09
2023-05-20T13:56:49.789Z,18.27
2023-05-20T13:59:16.292Z,18.29
2023-05-20T14:01:45.167Z,18.07
2023-05-20T14:04:12.590Z,17.97
2023-05-20T14:06:39.427Z,18.20
2023-05-20T14:09:06.730Z,18.25
2023-05-20T14:11:33.145Z,18.23
2023-05-20T14:13:59.622Z,18.75
2023-05-20T14:16:26.046Z,18.72
2023-05-20T14:18:52.564Z,18.55
2023-05-20T14:21:19.289Z,18.30
2023-05-20T14:23:45.680Z,18.15
2023-05-20T14:26:12.147Z,18.29
2023-05-20T14:28:38.846Z,18.39
2023-05-20T14:31:08.145Z,18.29
2023-05-20T14:33:36.032Z,18.06
2023-05-20T14:36:02.479Z,18.01
2023-05-20T14:38:28.926Z,18.08
2023-05-20T14:40:55.521Z,18.18
2023-05-20T14:43:21.956Z,18.22
2023-05-20T14:45:48.969Z,18.16
2023-05-20T14:48:15.513Z,18.17
2023-05-20T14:50:41.985Z,18.40
2023-05-20T14:53:08.574Z,18.80
2023-05-20T14:55:34.977Z,19.00
2023-05-20T14:58:01.409Z,19.36
2023-05-20T15:00:27.816Z,19.56
2023-05-20T15:02:54.507Z,19.25
2023-05-20T15:05:21.035Z,19.35
2023-05-20T15:07:47.410Z,19.27
2023-05-20T15:10:13.828Z,19.24
2023-05-20T15:12:40.531Z,19.07
2023-05-20T15:15:07.330Z,18.83
2023-05-20T15:17:33.721Z,18.83
2023-05-20T15:20:00.379Z,18.60
2023-05-20T15:22:26.792Z,18.55
2023-05-20T15:24:53.220Z,18.63
2023-05-20T15:27:19.694Z,18.48
2023-05-20T15:29:46.166Z,18.59
2023-05-20T15:32:12.541Z,18.66
2023-05-20T15:34:39.193Z,18.74
2023-05-20T15:37:05.959Z,18.73
2023-05-20T15:39:32.410Z,20.29
2023-05-20T15:42:00.501Z,21.37
2023-05-20T15:44:28.615Z,21.71
2023-05-20T15:46:55.614Z,22.47
2023-05-20T15:49:22.040Z,22.65
2023-05-20T15:51:55.779Z,21.38
2023-05-20T15:54:29.264Z,20.19
2023-05-20T15:56:55.827Z,19.53
2023-05-20T15:59:22.333Z,19.60
2023-05-20T16:01:48.894Z,19.84
2023-05-20T16:04:15.449Z,19.73
2023-05-20T16:06:41.946Z,20.37
2023-05-20T16:09:08.542Z,19.92
2023-05-20T16:11:35.928Z,19.67
2023-05-20T16:14:02.321Z,20.27
2023-05-20T16:16:29.100Z,21.66
2023-05-20T16:18:55.818Z,22.35
2023-05-20T16:21:24.873Z,22.85
2023-05-20T16:23:52.840Z,22.64
2023-05-20T16:26:19.294Z,22.22
2023-05-20T16:28:46.021Z,21.66
2023-05-20T16:31:12.722Z,20.65
2023-05-20T16:33:39.214Z,19.69
2023-05-20T16:36:06.154Z,19.65
2023-05-20T16:38:34.406Z,19.40
2023-05-20T16:41:01.678Z,19.34
2023-05-20T16:43:28.139Z,19.30
2023-05-20T16:45:54.624Z,19.30
2023-05-20T16:48:21.271Z,19.44
2023-05-20T16:50:47.722Z,19.49
2023-05-20T16:53:16.233Z,19.43
2023-05-20T16:55:42.861Z,19.40
2023-05-20T16:58:09.358Z,19.33
2023-05-20T17:00:35.978Z,19.22
2023-05-20T17:03:02.614Z,19.16
2023-05-20T17:05:29.043Z,18.97
2023-05-20T17:07:58.990Z,18.83
2023-05-20T17:10:25.474Z,18.86
2023-05-20T17:12:51.952Z,19.23
2023-05-20T17:15:18.587Z,19.12
2023-05-20T17:17:45.107Z,19.30
2023-05-20T17:20:11.970Z,19.25
2023-05-20T17:22:38.735Z,19.21
2023-05-20T17:25:05.946Z,19.13
2023-05-20T17:27:33.244Z,18.91
2023-05-20T17:29:59.709Z,18.68
2023-05-20T17:32:26.366Z,18.62
2023-05-20T17:34:52.856Z,18.55
2023-05-20T17:37:19.470Z,18.54
2023-05-20T17:39:46.017Z,18.54
2023-05-20T17:42:12.442Z,18.37
2023-05-20T17:44:39.157Z,18.35
2023-05-20T17:47:05.922Z,18.30
2023-05-20T17:49:32.295Z,18.31
2023-05-20T17:51:58.708Z,18.19
2023-05-20T17:54:25.079Z,18.08
2023-05-20T17:56:51.493Z,18.05
2023-05-20T17:59:17.964Z,18.02
2023-05-20T18:01:47.831Z,17.97
2023-05-20T18:04:14.357Z,18.00
2023-05-20T18:06:41.878Z,17.89
2023-05-20T18:09:08.467Z,17.85
2023-05-20T18:11:35.222Z,17.79
2023-05-20T18:14:01.881Z,17.63
2023-05-20T18:16:28.976Z,17.61
2023-05-20T18:18:55.801Z,17.62
2023-05-20T18:21:22.815Z,17.49
2023-05-20T18:23:49.311Z,17.44
2023-05-20T18:26:16.082Z,17.40
2023-05-20T18:28:42.698Z,17.32
2023-05-20T18:31:09.125Z,17.24
2023-05-20T18:33:36.977Z,17.20
2023-05-20T18:36:03.850Z,17.14
2023-05-20T18:38:31.351Z,17.07
2023-05-20T18:40:57.817Z,17.02
2023-05-20T18:43:24.289Z,16.88
2023-05-20T18:45:51.138Z,16.85
2023-05-20T18:48:26.246Z,16.83
2023-05-20T18:50:53.554Z,16.83
2023-05-20T18:53:19.957Z,16.85
2023-05-20T18:55:47.331Z,16.79
2023-05-20T18:58:14.042Z,16.69
2023-05-20T19:00:41.104Z,16.64
2023-05-20T19:03:07.564Z,16.64
2023-05-20T19:05:34.260Z,16.58
2023-05-20T19:08:02.440Z,16.59
2023-05-20T19:10:29.324Z,16.58
2023-05-20T19:12:56.167Z,16.50
2023-05-20T19:15:22.632Z,16.40
2023-05-20T19:17:49.067Z,16.47
2023-05-20T19:20:15.539Z,16.40
2023-05-20T19:22:42.004Z,16.45
2023-05-20T19:25:08.755Z,16.39
2023-05-20T19:27:35.282Z,16.33
2023-05-20T19:30:01.673Z,16.33
2023-05-20T19:32:28.128Z,16.33
2023-05-20T19:34:54.564Z,16.31
2023-05-20T19:37:23.076Z,16.28
2023-05-20T19:39:49.838Z,16.28
2023-05-20T19:42:16.419Z,16.26
2023-05-20T19:44:42.887Z,16.22
2023-05-20T19:47:09.321Z,16.15
2023-05-20T19:49:36.308Z,16.13
2023-05-20T19:52:02.795Z,16.11
2023-05-20T19:54:29.201Z,16.03
2023-05-20T19:56:55.814Z,15.97
2023-05-20T19:59:22.219Z,15.96
2023-05-20T20:01:48.683Z,15.98
2023-05-20T20:04:17.208Z,15.99
2023-05-20T20:06:44.043Z,15.99
2023-05-20T20:09:10.560Z,15.98
2023-05-20T20:11:37.188Z,15.95
2023-05-20T20:14:03.578Z,15.99
2023-05-20T20:16:30.520Z,16.04
2023-05-20T20:18:57.203Z,15.99
2023-05-20T20:21:25.772Z,15.95
2023-05-20T20:23:52.836Z,15.89
2023-05-20T20:26:22.806Z,15.91
2023-05-20T20:28:49.212Z,15.93
2023-05-20T20:31:15.650Z,15.86
2023-05-20T20:33:42.072Z,15.90
2023-05-20T20:36:09.252Z,15.83
2023-05-20T20:38:37.522Z,15.81
2023-05-20T20:41:04.035Z,15.79
2023-05-20T20:43:30.436Z,15.75
2023-05-20T20:45:56.948Z,15.75
2023-05-20T20:48:27.033Z,15.75
2023-05-20T20:50:53.734Z,15.75
2023-05-20T20:53:23.392Z,15.71
2023-05-20T20:55:51.278Z,15.66
2023-05-20T20:58:17.767Z,15.67
2023-05-20T21:00:45.703Z,15.66
2023-05-20T21:03:12.729Z,15.61
2023-05-20T21:05:39.480Z,15.54
2023-05-20T21:08:08.047Z,15.52
2023-05-20T21:10:36.019Z,15.50
2023-05-20T21:13:02.492Z,15.47
2023-05-20T21:15:28.882Z,15.41
2023-05-20T21:17:55.351Z,15.39
2023-05-20T21:20:22.094Z,15.39
2023-05-20T21:22:48.599Z,15.35
2023-05-20T21:25:15.118Z,15.32
2023-05-20T21:27:41.627Z,15.34
2023-05-20T21:30:09.553Z,15.30
2023-05-20T21:32:36.135Z,15.30
2023-05-20T21:35:02.567Z,15.25
2023-05-20T21:37:28.968Z,15.25
2023-05-20T21:39:55.439Z,15.28
2023-05-20T21:42:21.915Z,15.19
2023-05-20T21:44:48.390Z,15.22
2023-05-20T21:47:14.886Z,15.13
2023-05-20T21:49:41.262Z,15.06
2023-05-20T21:52:07.812Z,15.00
2023-05-20T21:54:34.249Z,14.97
2023-05-20T21:57:02.452Z,14.94
2023-05-20T21:59:28.961Z,14.89
2023-05-20T22:01:56.263Z,14.84
2023-05-20T22:04:23.118Z,14.79
2023-05-20T22:06:50.949Z,14.76
2023-05-20T22:09:17.668Z,14.77
2023-05-20T22:11:45.129Z,14.83
2023-05-20T22:14:16.289Z,14.80
2023-05-20T22:16:48.857Z,14.73
2023-05-20T22:19:15.438Z,14.66
2023-05-20T22:24:14.897Z,14.50
2023-05-20T22:26:41.578Z,14.48
2023-05-20T22:29:08.165Z,14.45
2023-05-20T22:31:34.816Z,14.44
2023-05-20T22:34:01.288Z,14.45
2023-05-20T22:36:27.993Z,14.42
2023-05-20T22:38:54.676Z,14.42
2023-05-20T22:41:21.743Z,14.46
2023-05-20T22:43:48.253Z,14.44
2023-05-20T22:46:14.960Z,14.42
2023-05-20T22:48:41.683Z,14.37
2023-05-20T22:51:08.863Z,14.30
2023-05-20T22:53:35.421Z,14.22
2023-05-20T22:56:02.002Z,14.17
2023-05-20T22:58:29.662Z,14.09
2023-05-20T23:00:56.713Z,14.04
2023-05-20T23:03:23.234Z,13.99
2023-05-20T23:05:49.665Z,13.94
2023-05-20T23:08:16.464Z,13.93
2023-05-20T23:10:42.870Z,13.88
2023-05-20T23:13:09.276Z,13.85
2023-05-20T23:15:36.652Z,13.80
2023-05-20T23:18:03.395Z,13.79
2023-05-20T23:20:29.826Z,13.74
2023-05-20T23:22:56.365Z,13.73
2023-05-20T23:25:24.368Z,13.74
2023-05-20T23:27:50.950Z,13.72
2023-05-20T23:30:19.481Z,13.68
2023-05-20T23:32:45.974Z,13.62
2023-05-20T23:35:13.174Z,13.56
2023-05-20T23:37:40.954Z,13.52
2023-05-20T23:40:09.129Z,13.51
2023-05-20T23:42:39.291Z,13.50
2023-05-20T23:45:06.517Z,13.50
2023-05-20T23:47:33.730Z,13.49
2023-05-20T23:50:00.203Z,13.49
2023-05-20T23:52:26.918Z,13.46
2023-05-20T23:54:53.387Z,13.43
2023-05-20T23:57:20.241Z,13.37
2023-05-20T23:59:49.009Z,13.36
